createdAt,value
2023-03-06T00:00:03.931Z,6.13
2023-03-06T00:02:39.124Z,2.92
2023-03-06T00:05:06.999Z,4.68
2023-03-06T00:07:34.267Z,4.75
2023-03-06T00:10:01.540Z,6.55
2023-03-06T00:12:28.841Z,5.32
2023-03-06T00:14:57.290Z,4.00
2023-03-06T00:17:24.674Z,8.07
2023-03-06T00:19:51.917Z,5.15
2023-03-06T00:22:21.486Z,4.88
2023-03-06T00:27:16.035Z,5.95
2023-03-06T00:29:43.380Z,4.60
2023-03-06T00:32:10.660Z,4.07
2023-03-06T00:34:38.027Z,4.95
2023-03-06T00:37:06.861Z,7.28
2023-03-06T00:39:34.228Z,5.90
2023-03-06T00:42:01.544Z,7.75
2023-03-06T00:44:29.177Z,6.40
2023-03-06T00:46:56.486Z,4.55
2023-03-06T00:49:24.334Z,6.85
2023-03-06T00:51:51.554Z,6.30
2023-03-06T00:54:18.943Z,5.75
2023-03-06T00:56:46.195Z,5.70
2023-03-06T00:59:13.494Z,5.00
2023-03-06T01:01:43.205Z,6.25
2023-03-06T01:04:10.668Z,6.65
2023-03-06T01:06:37.992Z,7.28
2023-03-06T01:09:05.865Z,7.03
2023-03-06T01:11:34.469Z,5.50
2023-03-06T01:14:01.775Z,7.72
2023-03-06T01:16:29.479Z,6.85
2023-03-06T01:18:56.772Z,6.43
2023-03-06T01:21:25.005Z,7.22
2023-03-06T01:23:53.059Z,6.60
2023-03-06T01:26:20.415Z,6.80
2023-03-06T01:28:47.671Z,6.65
2023-03-06T01:31:14.964Z,6.75
2023-03-06T01:33:42.327Z,7.30
2023-03-06T01:36:12.058Z,7.85
2023-03-06T01:38:39.887Z,8.43
2023-03-06T01:41:07.895Z,9.15
2023-03-06T01:43:36.607Z,8.57
2023-03-06T01:46:25.493Z,7.50
2023-03-06T01:48:57.501Z,9.15
2023-03-06T01:51:27.888Z,8.05
2023-03-06T01:53:56.984Z,7.80
2023-03-06T01:56:24.756Z,7.80
2023-03-06T01:58:52.565Z,9.18
2023-03-06T02:01:20.429Z,10.10
2023-03-06T02:03:49.959Z,9.70
2023-03-06T02:08:47.888Z,8.05
2023-03-06T02:11:17.383Z,9.02
2023-03-06T02:16:13.388Z,8.10
2023-03-06T02:18:41.359Z,8.98
2023-03-06T02:21:13.757Z,9.32
2023-03-06T02:23:54.154Z,10.55
2023-03-06T02:26:22.274Z,12.63
2023-03-06T02:28:49.608Z,9.98
2023-03-06T02:31:22.175Z,11.00
2023-03-06T02:34:01.371Z,10.95
2023-03-06T02:36:31.921Z,11.00
2023-03-06T02:38:59.328Z,10.75
2023-03-06T02:41:27.325Z,10.75
2023-03-06T02:43:54.663Z,12.05
2023-03-06T02:46:22.161Z,11.10
2023-03-06T02:48:49.594Z,11.30
2023-03-06T02:51:17.236Z,11.15
2023-03-06T02:53:44.892Z,13.27
2023-03-06T02:56:12.240Z,12.38
2023-03-06T02:58:41.939Z,13.55
2023-03-06T03:01:10.832Z,13.02
2023-03-06T03:03:40.276Z,11.60
2023-03-06T03:06:08.271Z,13.20
2023-03-06T03:08:37.248Z,12.88
2023-03-06T03:11:05.729Z,12.35
2023-03-06T03:13:42.976Z,12.07
2023-03-06T03:16:15.792Z,12.25
2023-03-06T03:18:49.135Z,12.93
2023-03-06T03:21:18.069Z,11.65
2023-03-06T03:23:47.430Z,11.25
2023-03-06T03:26:16.585Z,11.25
2023-03-06T03:28:49.001Z,11.27
2023-03-06T03:31:19.134Z,11.43
2023-03-06T03:33:46.469Z,10.80
2023-03-06T03:36:14.139Z,11.68
2023-03-06T03:38:45.392Z,9.35
2023-03-06T03:41:12.804Z,11.23
2023-03-06T03:43:40.165Z,11.65
2023-03-06T03:46:07.608Z,12.38
2023-03-06T03:48:35.286Z,11.70
2023-03-06T03:51:10.032Z,11.63
2023-03-06T03:53:41.860Z,10.48
2023-03-06T03:56:11.242Z,10.68
2023-03-06T03:58:46.368Z,11.35
2023-03-06T04:01:15.386Z,12.02
2023-03-06T04:03:42.959Z,10.55
2023-03-06T04:06:11.383Z,11.68
2023-03-06T04:08:38.956Z,10.32
2023-03-06T04:11:06.699Z,10.38
2023-03-06T04:13:34.029Z,11.05
2023-03-06T04:16:01.362Z,10.68
2023-03-06T04:18:30.572Z,12.02
2023-03-06T04:21:01.816Z,12.18
2023-03-06T04:23:29.436Z,11.98
2023-03-06T04:25:56.820Z,10.18
2023-03-06T04:28:24.189Z,10.55
2023-03-06T04:30:52.001Z,10.45
2023-03-06T04:33:20.554Z,9.48
2023-03-06T04:35:48.544Z,10.48
2023-03-06T04:38:21.354Z,10.35
2023-03-06T04:40:49.890Z,10.60
2023-03-06T04:43:17.604Z,9.40
2023-03-06T04:45:45.078Z,9.43
2023-03-06T04:48:17.234Z,8.43
2023-03-06T04:50:44.973Z,9.68
2023-03-06T04:53:12.407Z,8.93
2023-03-06T04:55:39.727Z,8.88
2023-03-06T04:58:07.080Z,7.43
2023-03-06T05:00:34.751Z,9.38
2023-03-06T05:03:02.762Z,10.20
2023-03-06T05:05:30.166Z,7.47
2023-03-06T05:07:57.862Z,8.60
2023-03-06T05:10:25.191Z,8.27
2023-03-06T05:12:52.624Z,8.98
2023-03-06T05:15:19.986Z,8.20
2023-03-06T05:17:47.673Z,8.27
2023-03-06T05:20:15.553Z,8.32
2023-03-06T05:22:42.993Z,10.55
2023-03-06T05:25:10.823Z,7.43
2023-03-06T05:27:38.682Z,8.18
2023-03-06T05:30:06.540Z,8.05
2023-03-06T05:32:35.557Z,7.05
2023-03-06T05:35:03.344Z,7.68
2023-03-06T05:37:30.891Z,8.25
2023-03-06T05:39:58.369Z,7.25
2023-03-06T05:42:28.479Z,6.53
2023-03-06T05:44:55.965Z,6.35
2023-03-06T05:47:23.360Z,6.18
2023-03-06T05:49:50.751Z,6.97
2023-03-06T05:52:18.548Z,7.65
2023-03-06T05:54:45.794Z,7.95
2023-03-06T05:57:13.238Z,6.35
2023-03-06T05:59:40.636Z,6.07
2023-03-06T06:02:08.073Z,10.63
2023-03-06T06:04:35.327Z,5.20
2023-03-06T06:07:02.701Z,5.18
2023-03-06T06:09:30.284Z,5.63
2023-03-06T06:11:59.368Z,5.20
2023-03-06T06:14:26.752Z,5.75
2023-03-06T06:16:54.126Z,5.85
2023-03-06T06:19:22.000Z,5.30
2023-03-06T06:21:50.710Z,6.00
2023-03-06T06:24:19.520Z,6.53
2023-03-06T06:26:47.531Z,6.18
2023-03-06T06:29:14.961Z,5.47
2023-03-06T06:31:42.461Z,4.80
2023-03-06T06:34:11.114Z,4.75
2023-03-06T06:36:38.648Z,4.55
2023-03-06T06:39:06.504Z,4.55
2023-03-06T06:41:53.098Z,4.88
2023-03-06T06:44:21.451Z,4.03
2023-03-06T06:47:21.339Z,3.78
2023-03-06T06:49:38.080Z,3.67
2023-03-06T06:52:06.019Z,3.75
2023-03-06T06:54:33.806Z,5.88
2023-03-06T06:57:01.143Z,5.28
2023-03-06T06:59:28.423Z,4.10
2023-03-06T07:01:55.643Z,2.72
2023-03-06T07:04:22.940Z,4.20
2023-03-06T07:06:50.243Z,7.70
2023-03-06T07:09:17.586Z,5.95
2023-03-06T07:11:44.844Z,5.22
2023-03-06T07:14:12.241Z,5.07
2023-03-06T07:16:39.841Z,5.38
2023-03-06T07:19:07.708Z,7.13
2023-03-06T07:21:35.609Z,7.90
2023-03-06T07:24:02.930Z,5.70
2023-03-06T07:26:32.784Z,7.65
2023-03-06T07:29:03.495Z,4.65
2023-03-06T07:31:31.443Z,6.07
2023-03-06T07:33:58.743Z,5.90
2023-03-06T07:36:26.153Z,5.18
2023-03-06T07:38:53.659Z,3.10
2023-03-06T07:41:22.577Z,5.57
2023-03-06T07:43:50.319Z,4.32
2023-03-06T07:46:17.931Z,6.18
2023-03-06T07:48:45.292Z,5.78
2023-03-06T07:51:15.796Z,5.93
2023-03-06T07:53:43.242Z,4.40
2023-03-06T07:56:11.855Z,2.80
2023-03-06T07:58:41.133Z,5.30
2023-03-06T08:01:10.479Z,4.80
2023-03-06T08:03:37.857Z,5.25
2023-03-06T08:06:13.242Z,3.97
2023-03-06T08:08:41.314Z,3.30
2023-03-06T08:11:09.366Z,4.80
2023-03-06T08:13:37.218Z,4.78
2023-03-06T08:16:05.028Z,2.42
2023-03-06T08:18:32.401Z,2.05
2023-03-06T08:21:05.914Z,5.30
2023-03-06T08:23:33.824Z,2.50
2023-03-06T08:26:02.725Z,4.05
2023-03-06T08:28:30.283Z,2.30
2023-03-06T08:30:57.828Z,2.60
2023-03-06T08:33:25.461Z,2.92
2023-03-06T08:35:53.377Z,3.05
2023-03-06T08:38:20.598Z,1.77
2023-03-06T08:40:47.936Z,2.00
2023-03-06T08:43:15.341Z,1.35
2023-03-06T08:45:42.695Z,3.25
2023-03-06T08:48:10.057Z,3.28
2023-03-06T08:50:37.494Z,3.75
2023-03-06T08:53:04.829Z,1.58
2023-03-06T08:55:32.058Z,4.30
2023-03-06T08:57:59.381Z,1.98
2023-03-06T09:00:26.762Z,3.13
2023-03-06T09:02:54.157Z,1.92
2023-03-06T09:05:21.555Z,3.72
2023-03-06T09:07:48.855Z,3.83
2023-03-06T09:10:16.929Z,1.88
2023-03-06T09:12:50.178Z,1.90
2023-03-06T09:15:18.883Z,2.47
2023-03-06T09:17:47.269Z,3.00
2023-03-06T09:20:15.227Z,2.80
2023-03-06T09:22:42.702Z,2.30
2023-03-06T09:25:13.185Z,1.58
2023-03-06T09:27:40.739Z,1.65
2023-03-06T09:30:08.437Z,1.42
2023-03-06T09:32:35.705Z,1.00
2023-03-06T09:35:03.091Z,2.50
2023-03-06T09:37:30.587Z,0.82
2023-03-06T09:39:57.876Z,1.48
2023-03-06T09:42:25.404Z,1.63
2023-03-06T09:44:57.810Z,1.90
2023-03-06T09:47:43.894Z,1.05
2023-03-06T09:50:14.654Z,1.00
2023-03-06T09:53:05.631Z,2.17
2023-03-06T09:55:33.787Z,2.20
2023-03-06T09:58:07.535Z,0.70
2023-03-06T10:00:39.502Z,1.67
2023-03-06T10:03:06.851Z,1.98
2023-03-06T10:05:36.469Z,1.60
2023-03-06T10:10:41.511Z,2.95
2023-03-06T10:13:20.168Z,1.02
2023-03-06T10:15:48.179Z,3.15
2023-03-06T10:18:15.611Z,1.20
2023-03-06T10:20:45.866Z,0.90
2023-03-06T10:23:16.222Z,2.08
2023-03-06T10:25:46.835Z,1.50
2023-03-06T10:28:22.741Z,1.05
2023-03-06T10:30:59.566Z,0.90
2023-03-06T10:33:45.276Z,1.45
2023-03-06T10:36:15.307Z,2.55
2023-03-06T10:38:44.233Z,1.92
2023-03-06T10:41:11.700Z,0.75
2023-03-06T10:43:40.101Z,1.98
2023-03-06T10:46:08.408Z,1.10
2023-03-06T10:48:36.779Z,2.80
2023-03-06T10:51:20.858Z,2.50
2023-03-06T10:53:56.089Z,0.75
2023-03-06T10:56:42.725Z,1.08
2023-03-06T10:59:13.179Z,3.67
2023-03-06T11:01:44.932Z,1.52
2023-03-06T11:04:17.550Z,2.72
2023-03-06T11:06:45.172Z,1.20
2023-03-06T11:09:22.974Z,1.27
2023-03-06T11:11:53.790Z,2.58
2023-03-06T11:14:27.510Z,1.23
2023-03-06T11:16:56.498Z,0.55
2023-03-06T11:19:28.885Z,1.38
2023-03-06T11:22:01.237Z,1.83
2023-03-06T11:24:32.138Z,13.13
2023-03-06T11:27:01.542Z,8.65
2023-03-06T11:29:38.980Z,7.82
2023-03-06T11:32:21.844Z,6.18
2023-03-06T11:34:51.714Z,5.32
2023-03-06T11:37:38.158Z,5.97
2023-03-06T11:40:12.639Z,3.67
2023-03-06T11:42:42.526Z,3.20
2023-03-06T11:45:16.310Z,4.43
2023-03-06T11:47:46.985Z,3.22
2023-03-06T11:50:14.767Z,3.40
2023-03-06T11:52:48.236Z,2.58
2023-03-06T11:55:25.264Z,3.08
2023-03-06T11:58:12.190Z,5.47
2023-03-06T12:00:51.833Z,4.32
2023-03-06T12:03:22.237Z,2.50
2023-03-06T12:05:53.977Z,2.80
2023-03-06T12:08:27.260Z,3.10
2023-03-06T12:11:00.690Z,3.08
2023-03-06T12:13:44.916Z,4.75
2023-03-06T12:16:41.499Z,3.05
2023-03-06T12:19:08.854Z,3.20
2023-03-06T12:21:47.737Z,3.20
2023-03-06T12:24:33.812Z,3.65
2023-03-06T12:27:08.118Z,3.90
2023-03-06T12:29:44.485Z,3.72
2023-03-06T12:32:14.932Z,3.75
2023-03-06T12:34:48.453Z,6.07
2023-03-06T12:37:22.446Z,5.60
2023-03-06T12:39:57.346Z,4.03
2023-03-06T12:42:38.236Z,4.03
2023-03-06T12:45:29.527Z,9.00
2023-03-06T12:47:57.648Z,6.53
2023-03-06T12:50:26.960Z,16.35
2023-03-06T12:52:55.688Z,4.47
2023-03-06T12:55:25.911Z,11.30
2023-03-06T12:57:54.033Z,7.82
2023-03-06T13:00:37.138Z,4.40
2023-03-06T13:03:15.122Z,4.97
2023-03-06T13:05:48.618Z,6.15
2023-03-06T13:08:25.385Z,4.68
2023-03-06T13:11:11.877Z,5.40
2023-03-06T13:13:43.779Z,7.15
2023-03-06T13:16:11.154Z,7.50
2023-03-06T13:18:38.528Z,10.85
2023-03-06T13:21:06.093Z,8.48
2023-03-06T13:23:33.419Z,10.45
2023-03-06T13:26:00.915Z,9.30
2023-03-06T13:28:44.982Z,8.93
2023-03-06T13:31:27.720Z,8.93
2023-03-06T13:33:59.873Z,10.25
2023-03-06T13:36:28.777Z,9.00
2023-03-06T13:38:56.172Z,8.77
2023-03-06T13:41:23.502Z,9.52
2023-03-06T13:43:52.089Z,10.38
2023-03-06T13:46:30.941Z,8.68
2023-03-06T13:49:06.676Z,10.60
2023-03-06T13:51:38.398Z,11.20
2023-03-06T13:54:21.110Z,10.35
2023-03-06T13:57:20.934Z,11.07
2023-03-06T14:00:08.263Z,11.60
2023-03-06T14:02:39.422Z,10.02
2023-03-06T14:05:12.407Z,12.60
2023-03-06T14:07:42.115Z,12.25
2023-03-06T14:10:14.930Z,12.73
2023-03-06T14:12:44.575Z,11.52
2023-03-06T14:15:23.096Z,13.88
2023-03-06T14:17:57.714Z,13.48
2023-03-06T14:20:30.039Z,17.52
2023-03-06T14:23:14.373Z,15.25
2023-03-06T14:25:43.004Z,10.43
2023-03-06T14:28:21.915Z,13.40
2023-03-06T14:30:50.856Z,10.70
2023-03-06T14:33:27.214Z,12.23
2023-03-06T14:35:56.542Z,13.18
2023-03-06T14:38:23.918Z,10.52
2023-03-06T14:40:52.452Z,10.60
2023-03-06T14:43:20.466Z,11.05
2023-03-06T14:45:53.915Z,11.25
2023-03-06T14:48:21.940Z,10.07
2023-03-06T14:51:08.845Z,10.70
2023-03-06T14:53:36.220Z,11.40
2023-03-06T14:56:07.415Z,10.60
2023-03-06T14:58:58.080Z,9.55
2023-03-06T15:01:38.857Z,8.85
2023-03-06T15:04:26.348Z,9.52
2023-03-06T15:06:54.936Z,8.88
2023-03-06T15:09:24.231Z,7.80
2023-03-06T15:11:57.697Z,10.05
2023-03-06T15:14:31.686Z,8.27
2023-03-06T15:17:17.808Z,11.18
2023-03-06T15:19:46.763Z,10.05
2023-03-06T15:22:34.487Z,9.48
2023-03-06T15:25:17.651Z,7.80
2023-03-06T15:27:53.074Z,8.52
2023-03-06T15:30:34.216Z,8.77
2023-03-06T15:33:19.726Z,9.13
2023-03-06T15:35:57.636Z,8.68
2023-03-06T15:38:26.949Z,9.88
2023-03-06T15:40:55.360Z,9.45
2023-03-06T15:43:22.695Z,8.32
2023-03-06T15:45:50.111Z,8.27
2023-03-06T15:48:18.683Z,8.23
2023-03-06T15:50:46.002Z,8.45
2023-03-06T15:53:13.387Z,8.82
2023-03-06T15:55:40.771Z,9.80
2023-03-06T15:58:15.707Z,8.75
2023-03-06T16:00:42.955Z,10.45
2023-03-06T16:03:10.974Z,9.93
2023-03-06T16:05:38.661Z,10.75
2023-03-06T16:08:06.329Z,11.10
2023-03-06T16:10:36.155Z,10.98
2023-03-06T16:13:06.334Z,10.43
2023-03-06T16:15:37.045Z,13.52
2023-03-06T16:18:04.948Z,11.85
2023-03-06T16:20:33.447Z,15.88
2023-03-06T16:23:01.160Z,14.13
2023-03-06T16:25:29.331Z,16.25
2023-03-06T16:28:00.055Z,16.63
2023-03-06T16:30:29.275Z,18.77
2023-03-06T16:32:57.191Z,19.88
2023-03-06T16:35:25.058Z,21.38
2023-03-06T16:37:52.639Z,19.77
2023-03-06T16:40:20.086Z,19.65
2023-03-06T16:42:47.691Z,18.95
2023-03-06T16:45:15.395Z,20.33
2023-03-06T16:47:45.773Z,21.13
2023-03-06T16:50:22.512Z,18.40
2023-03-06T16:52:50.176Z,19.55
2023-03-06T16:55:17.551Z,18.75
2023-03-06T16:57:44.948Z,18.90
2023-03-06T17:00:13.822Z,18.65
2023-03-06T17:02:41.867Z,17.75
2023-03-06T17:05:11.182Z,20.25
2023-03-06T17:07:39.155Z,18.45
2023-03-06T17:10:09.308Z,20.52
2023-03-06T17:12:37.196Z,19.38
2023-03-06T17:15:05.395Z,20.88
2023-03-06T17:17:33.163Z,20.73
2023-03-06T17:20:00.758Z,18.20
2023-03-06T17:22:28.141Z,18.30
2023-03-06T17:24:55.669Z,19.35
2023-03-06T17:27:23.563Z,21.80
2023-03-06T17:29:51.167Z,18.95
2023-03-06T17:32:18.624Z,18.10
2023-03-06T17:34:46.334Z,19.63
2023-03-06T17:37:13.932Z,17.92
2023-03-06T17:39:41.405Z,18.42
2023-03-06T17:42:09.073Z,19.02
2023-03-06T17:44:36.682Z,19.27
2023-03-06T17:47:04.109Z,17.33
2023-03-06T17:49:31.846Z,19.27
2023-03-06T17:52:06.169Z,18.88
2023-03-06T17:54:34.940Z,18.33
2023-03-06T17:57:03.722Z,18.00
2023-03-06T17:59:31.408Z,16.38
2023-03-06T18:01:59.764Z,17.98
2023-03-06T18:04:27.710Z,20.55
2023-03-06T18:06:55.127Z,18.75
2023-03-06T18:09:22.799Z,20.70
2023-03-06T18:11:50.152Z,17.38
2023-03-06T18:14:17.406Z,18.73
2023-03-06T18:16:44.798Z,19.80
2023-03-06T18:19:12.234Z,19.92
2023-03-06T18:21:40.343Z,19.98
2023-03-06T18:24:08.013Z,19.77
2023-03-06T18:26:35.462Z,20.23
2023-03-06T18:29:04.595Z,18.85
2023-03-06T18:31:36.391Z,21.30
2023-03-06T18:34:05.562Z,21.20
2023-03-06T18:36:33.587Z,21.95
2023-03-06T18:39:03.775Z,26.02
2023-03-06T18:41:31.713Z,21.73
2023-03-06T18:44:00.318Z,22.48
2023-03-06T18:46:30.663Z,23.40
2023-03-06T18:48:58.026Z,21.60
2023-03-06T18:51:25.680Z,23.17
2023-03-06T18:53:53.136Z,21.92
2023-03-06T18:56:21.911Z,22.33
2023-03-06T18:58:50.376Z,23.95
2023-03-06T19:01:18.223Z,24.67
2023-03-06T19:03:45.714Z,24.65
2023-03-06T19:06:14.061Z,23.38
2023-03-06T19:08:41.510Z,21.63
2023-03-06T19:11:13.281Z,22.98
2023-03-06T19:13:40.822Z,22.70
2023-03-06T19:16:08.376Z,22.40
2023-03-06T19:18:35.806Z,23.85
2023-03-06T19:21:14.312Z,22.23
2023-03-06T19:23:42.257Z,22.33
2023-03-06T19:26:09.904Z,24.02
2023-03-06T19:28:38.441Z,24.83
2023-03-06T19:31:19.569Z,23.45
2023-03-06T19:33:47.659Z,23.70
2023-03-06T19:36:15.877Z,21.45
2023-03-06T19:38:43.398Z,24.23
2023-03-06T19:41:14.019Z,25.20
2023-03-06T19:43:42.302Z,25.23
2023-03-06T19:46:15.683Z,27.08
2023-03-06T19:48:43.061Z,25.02
2023-03-06T19:51:10.578Z,25.75
2023-03-06T19:53:38.898Z,26.13
2023-03-06T19:56:17.318Z,24.63
2023-03-06T19:58:44.835Z,25.05
2023-03-06T20:01:13.485Z,25.00
2023-03-06T20:03:41.053Z,24.58
2023-03-06T20:06:12.679Z,27.38
2023-03-06T20:08:40.201Z,24.20
2023-03-06T20:11:07.810Z,26.67
2023-03-06T20:13:35.064Z,27.35
2023-03-06T20:16:05.755Z,27.20
2023-03-06T20:18:33.320Z,24.35
2023-03-06T20:21:01.295Z,26.40
2023-03-06T20:23:28.794Z,27.95
2023-03-06T20:25:56.191Z,23.80
2023-03-06T20:28:24.052Z,24.40
2023-03-06T20:30:51.423Z,24.02
2023-03-06T20:33:21.145Z,25.25
2023-03-06T20:35:48.556Z,27.35
2023-03-06T20:38:15.860Z,27.30
2023-03-06T20:40:43.392Z,26.85
2023-03-06T20:43:10.729Z,23.48
2023-03-06T20:45:38.080Z,27.85
2023-03-06T20:48:05.403Z,27.40
2023-03-06T20:50:32.720Z,23.80
2023-03-06T20:52:59.984Z,24.15
2023-03-06T20:55:27.222Z,23.05
2023-03-06T20:57:54.547Z,25.77
2023-03-06T21:00:22.212Z,25.50
2023-03-06T21:02:49.662Z,25.08
2023-03-06T21:05:16.995Z,23.30
2023-03-06T21:07:44.469Z,25.23
2023-03-06T21:10:12.075Z,24.55
2023-03-06T21:12:40.078Z,27.60
2023-03-06T21:15:07.739Z,23.90
2023-03-06T21:17:35.102Z,23.25
2023-03-06T21:20:02.811Z,24.17
2023-03-06T21:22:30.274Z,25.55
2023-03-06T21:24:57.647Z,29.80
2023-03-06T21:27:25.060Z,24.92
2023-03-06T21:29:52.416Z,25.05
2023-03-06T21:32:19.874Z,26.85
2023-03-06T21:34:47.294Z,21.52
2023-03-06T21:37:14.701Z,23.30
2023-03-06T21:39:41.912Z,22.98
2023-03-06T21:42:09.173Z,22.98
2023-03-06T21:44:36.490Z,21.15
2023-03-06T21:47:03.753Z,21.30
2023-03-06T21:49:31.018Z,20.30
2023-03-06T21:51:58.297Z,17.35
2023-03-06T21:54:26.927Z,19.08
2023-03-06T21:56:54.231Z,16.80
2023-03-06T21:59:21.490Z,16.38
2023-03-06T22:01:48.964Z,17.05
2023-03-06T22:04:16.328Z,15.35
2023-03-06T22:06:43.622Z,16.73
2023-03-06T22:09:12.953Z,15.60
2023-03-06T22:11:40.269Z,17.85
2023-03-06T22:14:07.595Z,15.40
2023-03-06T22:16:35.045Z,13.95
2023-03-06T22:19:02.426Z,14.07
2023-03-06T22:21:29.768Z,14.63
2023-03-06T22:23:57.845Z,16.48
2023-03-06T22:26:25.922Z,11.98
2023-03-06T22:28:53.220Z,14.23
2023-03-06T22:31:23.889Z,12.43
2023-03-06T22:33:55.243Z,12.95
2023-03-06T22:36:22.824Z,11.65
2023-03-06T22:38:53.681Z,12.27
2023-03-06T22:41:21.154Z,11.80
2023-03-06T22:43:48.605Z,10.40
2023-03-06T22:46:17.707Z,10.90
2023-03-06T22:48:45.780Z,8.82
2023-03-06T22:51:14.408Z,9.13
2023-03-06T22:53:41.998Z,8.75
2023-03-06T22:56:11.116Z,10.02
2023-03-06T22:58:38.728Z,8.95
2023-03-06T23:01:12.338Z,8.15
2023-03-06T23:03:40.617Z,9.68
2023-03-06T23:06:15.506Z,7.20
2023-03-06T23:08:43.257Z,8.13
2023-03-06T23:11:15.189Z,8.73
2023-03-06T23:14:01.591Z,9.65
2023-03-06T23:16:47.480Z,8.35
2023-03-06T23:19:33.441Z,8.35
2023-03-06T23:22:19.598Z,8.10
2023-03-06T23:25:06.005Z,7.68
2023-03-06T23:27:33.375Z,9.93
2023-03-06T23:30:00.588Z,8.38
2023-03-06T23:32:28.178Z,7.70
2023-03-06T23:34:55.524Z,9.30
2023-03-06T23:37:23.405Z,7.90
2023-03-06T23:39:50.790Z,9.75
2023-03-06T23:42:18.487Z,6.25
2023-03-06T23:44:45.668Z,9.75
2023-03-06T23:47:13.022Z,8.82
2023-03-06T23:49:40.591Z,10.05
2023-03-06T23:52:08.295Z,9.88
2023-03-06T23:54:35.879Z,9.00
2023-03-06T23:57:03.400Z,10.10
2023-03-06T23:59:30.961Z,9.13
